This is the latest recevied weather packets stored in our database for station/object HS3UAA-1. If no packets are shown the sender has not sent any weather packets the latest 10 day(s).
| Time | Temp. | Humidity | Pressure | Rain* | Wind** | Luminosity | Snow |
|---|---|---|---|---|---|---|---|
| 1787659828 | 35° C | 37% | 995 hPa | - | - | 0 W/m² | - |
| 1787659506 | 35° C | 37% | 995 hPa | - | - | 0 W/m² | - |
| 1787659184 | 35° C | 36% | 994 hPa | - | - | 0 W/m² | - |
| 1787658862 | 35° C | 36% | 994 hPa | - | - | 0 W/m² | - |
| 1787658540 | 34.44° C | 36% | 994 hPa | - | - | 0 W/m² | - |
| 1787658217 | 34.44° C | 37% | 994 hPa | - | - | 0 W/m² | - |
| 1787657895 | 33.89° C | 37% | 994 hPa | - | - | 0 W/m² | - |
| 1787657579 | 34.44° C | 36% | 994 hPa | - | - | 0 W/m² | - |
| 1787657252 | 33.89° C | 36% | 994 hPa | - | - | 0 W/m² | - |
| 1787656929 | 33.89° C | 37% | 994 hPa | - | - | 0 W/m² | - |
| 1787656607 | 33.89° C | 37% | 994 hPa | - | - | 0 W/m² | - |
| 1787656285 | 33.33° C | 37% | 994 hPa | - | - | 0 W/m² | - |
| 1787655963 | 33.33° C | 37% | 994 hPa | - | - | 0 W/m² | - |
| 1787655641 | 33.33° C | 37% | 994 hPa | - | - | 0 W/m² | - |
| 1787655319 | 32.78° C | 37% | 994 hPa | - | - | 0 W/m² | - |
| 1787654997 | 32.78° C | 37% | 994 hPa | - | - | 0 W/m² | - |
| 1787654675 | 32.22° C | 37% | 994 hPa | - | - | 0 W/m² | - |
| 1787654068 | 32.22° C | 37% | 994 hPa | - | - | 0 W/m² | - |
| 1787653746 | 31.67° C | 38% | 994 hPa | - | - | 0 W/m² | - |
| 1787653424 | 31.11° C | 37% | 994 hPa | - | - | 0 W/m² | - |
| 1787653102 | 29.44° C | 40% | 994 hPa | - | - | 0 W/m² | - |
| 1787652780 | 28.33° C | 43% | 994 hPa | - | - | 0 W/m² | - |
| 1787652458 | 27.78° C | 47% | 994 hPa | - | - | 0 W/m² | - |
| 1787652136 | 28.33° C | 42% | 994 hPa | - | - | 0 W/m² | - |
| 1787651814 | 28.33° C | 44% | 994 hPa | - | - | 0 W/m² | - |
* Rain since midnight (hover to see other rain measurements)
** Current wind speed in m/s (hover to see current wind gust speed)